EDNY METAR and TAF | Updated Today

EDNY METAR

Friedrichshafen Airport

Observation time: 8 min. ago

EDNY 061820Z 02006KT 9999 FEW025 OVC030 M00/M05 Q1034

Need help? Read our tutorial on how to read METARs or read the parsed version below.

Friedrichshafen Airport (EDNY) METAR

  • Weather conditions on Mon, 06 Feb 2023 18:20:00 +0000 (8 min. ago):
  • Present conditions: Dry
  • Clouds: A few at 762 meters; overcast sky at 914 meters
  • Visibility: Greater than 10 km
  • Wind: 20 degrees at 6 knots
  • Temperature: 0 celsius
  • Dew point: -5 celsius
  • Pressure: 1034 millibars
  • Remarks: None


Useful to know...

EDNY TAF

Friedrichshafen Airport

TAF EDNY 061700Z 0618/0718 02007KT 9999 BKN025
Observation time: 88 min. ago
Need help? Read our tutorial on how to read TAFs or read the parsed version below.

Parsed version of TAF for Friedrichshafen Airport (EDNY)

  • From 06 February at 18:00 UTC, to day 07 of the month at 18:00 UTC
  • Clouds: Broken sky at 762 meters
  • Visibility: Greater than 10 km
  • Wind: 20 degrees at 7